Kailua, HI

7:23 PM HST on January 16, 2017 (GMT -1000)
Kailua Beach | | Change Station

Elev 10 ft 21.40 °N, 157.73 °W | Updated 5 seconds ago

Partly Cloudy
Partly Cloudy
75.0 °F
Feels Like 75 °F
N
10.0
Wind Variable Wind from NE
Gusts 12.0 mph

Today
High -- | Low -- °F
--% Chance of Precip.
Yesterday
High -- | Low -- °F
Precip. -- in
Pressure 30.06 in
Visibility 10.0 miles
Clouds Few 2600 ft
Mostly Cloudy 4100 ft
Mostly Cloudy 6500 ft
Heat Index 75 °F
Dew Point 69 °F
Humidity 81%
Rainfall 0.00 in
Snow Depth Not available.
7:11 AM 6:10 PM
Waning Gibbous, 75% visible
METAR PHNL 170453Z 02005KT 10SM FEW026 BKN041 BKN065 24/17 A3006 RMK AO2 SLP177 T02440167
Pressure 30.06 in
Visibility 10.0 miles
Clouds Few 2600 ft
Mostly Cloudy 4100 ft
Mostly Cloudy 6500 ft
Heat Index 75 °F
Dew Point 69 °F
Humidity 81%
Rainfall 0.00 in
Snow Depth Not available.
7:11 AM 6:10 PM
Waning Gibbous, 75% visible
METAR PHNL 170453Z 02005KT 10SM FEW026 BKN041 BKN065 24/17 A3006 RMK AO2 SLP177 T02440167

Get Your Daily Forecast Email!

Thanks for signing up!

Be on the lookout for a verification email in your inbox.

You'll start receiving the daily forecast at 8 AM.

×

10-Day Weather Forecast

Almanac

Astronomy

Jan. 16, 2017 Rise Set
Actual Time
Civil Twilight
Nautical Twilight
Astronomical Twilight
Moon
Length of Visible Light
Length of Day
Tomorrow will be .
, % of the Moon is Illuminated

Today's Extremes

State Highs State Lows

Community

WunderPhotos

Upload Photos

1,962,540 photos uploaded!

WunderBlog® & News

Nearby

Air Quality

  Air Quality AQ Index Pollutant
Not available.

Snow Depth

Station Depth Elevation

Earthquake Activity

City Distance Mag. Time & Date
Minimum magnitude displayed is 2.5.

Coastal Water Temperatures

Place Temperature

Stations

Nearby Weather Stations

Station Location Temp. Windchill Dew Point Humidity Wind Precip. Elev Updated Type
                   

Watches & Warnings

There are currently no watches in effect.